sensor_id;sensor_type;location;lat;lon;timestamp;P1;durP1;ratioP1;P2;durP2;ratioP2
52956;SDS011;38819;42.692;23.342;2022-08-21T00:00:32;18.48;;;12.68;;
52956;SDS011;38819;42.692;23.342;2022-08-21T00:03:00;19.23;;;12.18;;
52956;SDS011;38819;42.692;23.342;2022-08-21T00:05:28;16.45;;;12.07;;
52956;SDS011;38819;42.692;23.342;2022-08-21T00:07:55;16.95;;;12.43;;
52956;SDS011;38819;42.692;23.342;2022-08-21T00:10:21;18.90;;;12.55;;
52956;SDS011;38819;42.692;23.342;2022-08-21T00:12:47;19.05;;;13.02;;
52956;SDS011;38819;42.692;23.342;2022-08-21T00:15:14;18.20;;;12.38;;
52956;SDS011;38819;42.692;23.342;2022-08-21T00:17:42;15.05;;;11.30;;
52956;SDS011;38819;42.692;23.342;2022-08-21T00:20:10;14.13;;;10.10;;
52956;SDS011;38819;42.692;23.342;2022-08-21T00:22:37;13.05;;;10.23;;
52956;SDS011;38819;42.692;23.342;2022-08-21T00:25:05;13.35;;;9.93;;
52956;SDS011;38819;42.692;23.342;2022-08-21T00:27:31;15.15;;;9.40;;
52956;SDS011;38819;42.692;23.342;2022-08-21T00:29:58;13.98;;;9.52;;
52956;SDS011;38819;42.692;23.342;2022-08-21T00:32:24;14.82;;;10.50;;
52956;SDS011;38819;42.692;23.342;2022-08-21T00:34:51;18.67;;;10.68;;
52956;SDS011;38819;42.692;23.342;2022-08-21T00:37:17;12.88;;;10.05;;
52956;SDS011;38819;42.692;23.342;2022-08-21T00:39:43;17.70;;;9.32;;
52956;SDS011;38819;42.692;23.342;2022-08-21T00:42:09;18.02;;;11.23;;
52956;SDS011;38819;42.692;23.342;2022-08-21T00:44:35;17.57;;;11.93;;
52956;SDS011;38819;42.692;23.342;2022-08-21T00:47:01;15.40;;;10.85;;
52956;SDS011;38819;42.692;23.342;2022-08-21T00:49:26;18.95;;;12.50;;
52956;SDS011;38819;42.692;23.342;2022-08-21T00:51:53;15.45;;;11.30;;
52956;SDS011;38819;42.692;23.342;2022-08-21T00:54:24;15.55;;;11.90;;
52956;SDS011;38819;42.692;23.342;2022-08-21T00:56:52;18.70;;;11.63;;
52956;SDS011;38819;42.692;23.342;2022-08-21T00:59:21;17.15;;;10.68;;
52956;SDS011;38819;42.692;23.342;2022-08-21T01:01:48;16.27;;;11.98;;
52956;SDS011;38819;42.692;23.342;2022-08-21T01:04:15;18.15;;;11.48;;
52956;SDS011;38819;42.692;23.342;2022-08-21T01:06:41;18.23;;;12.03;;
52956;SDS011;38819;42.692;23.342;2022-08-21T01:09:07;20.40;;;12.27;;
52956;SDS011;38819;42.692;23.342;2022-08-21T01:11:32;18.85;;;12.43;;
52956;SDS011;38819;42.692;23.342;2022-08-21T01:13:58;17.55;;;11.32;;
52956;SDS011;38819;42.692;23.342;2022-08-21T01:16:23;19.85;;;12.07;;
52956;SDS011;38819;42.692;23.342;2022-08-21T01:18:50;22.23;;;13.35;;
52956;SDS011;38819;42.692;23.342;2022-08-21T01:21:17;19.08;;;13.65;;
52956;SDS011;38819;42.692;23.342;2022-08-21T01:23:46;16.63;;;12.68;;
52956;SDS011;38819;42.692;23.342;2022-08-21T01:26:14;20.20;;;12.88;;
52956;SDS011;38819;42.692;23.342;2022-08-21T01:28:42;22.08;;;13.88;;
52956;SDS011;38819;42.692;23.342;2022-08-21T01:31:12;18.98;;;13.60;;
52956;SDS011;38819;42.692;23.342;2022-08-21T01:33:40;16.80;;;13.73;;
52956;SDS011;38819;42.692;23.342;2022-08-21T01:36:05;19.67;;;14.32;;
52956;SDS011;38819;42.692;23.342;2022-08-21T01:38:31;22.13;;;14.77;;
52956;SDS011;38819;42.692;23.342;2022-08-21T01:40:58;25.43;;;15.20;;
52956;SDS011;38819;42.692;23.342;2022-08-21T01:43:23;21.13;;;13.45;;
52956;SDS011;38819;42.692;23.342;2022-08-21T01:45:48;26.55;;;16.65;;
52956;SDS011;38819;42.692;23.342;2022-08-21T01:48:14;28.48;;;17.30;;
52956;SDS011;38819;42.692;23.342;2022-08-21T01:50:39;28.02;;;19.65;;
52956;SDS011;38819;42.692;23.342;2022-08-21T01:53:05;32.30;;;20.95;;
52956;SDS011;38819;42.692;23.342;2022-08-21T01:55:30;29.45;;;21.55;;
52956;SDS011;38819;42.692;23.342;2022-08-21T01:57:56;34.67;;;23.02;;
52956;SDS011;38819;42.692;23.342;2022-08-21T02:00:24;38.58;;;23.55;;
52956;SDS011;38819;42.692;23.342;2022-08-21T02:02:50;37.33;;;24.02;;
52956;SDS011;38819;42.692;23.342;2022-08-21T02:05:16;34.50;;;23.40;;
52956;SDS011;38819;42.692;23.342;2022-08-21T02:07:42;37.50;;;24.35;;
52956;SDS011;38819;42.692;23.342;2022-08-21T02:10:10;34.83;;;23.63;;
52956;SDS011;38819;42.692;23.342;2022-08-21T02:12:37;34.85;;;23.17;;
52956;SDS011;38819;42.692;23.342;2022-08-21T02:15:03;36.88;;;23.00;;
52956;SDS011;38819;42.692;23.342;2022-08-21T02:17:37;41.70;;;24.67;;
52956;SDS011;38819;42.692;23.342;2022-08-21T02:20:08;35.03;;;24.17;;
52956;SDS011;38819;42.692;23.342;2022-08-21T02:22:35;42.72;;;24.65;;
52956;SDS011;38819;42.692;23.342;2022-08-21T02:25:00;35.80;;;23.95;;
52956;SDS011;38819;42.692;23.342;2022-08-21T02:27:26;34.22;;;23.15;;
52956;SDS011;38819;42.692;23.342;2022-08-21T02:29:51;32.35;;;23.20;;
52956;SDS011;38819;42.692;23.342;2022-08-21T02:32:16;34.03;;;21.90;;
52956;SDS011;38819;42.692;23.342;2022-08-21T02:34:42;34.30;;;22.38;;
52956;SDS011;38819;42.692;23.342;2022-08-21T02:37:07;31.00;;;21.80;;
52956;SDS011;38819;42.692;23.342;2022-08-21T02:39:33;37.45;;;22.02;;
52956;SDS011;38819;42.692;23.342;2022-08-21T02:41:58;40.53;;;24.23;;
52956;SDS011;38819;42.692;23.342;2022-08-21T02:44:25;39.08;;;23.58;;
52956;SDS011;38819;42.692;23.342;2022-08-21T02:46:50;33.90;;;23.23;;
52956;SDS011;38819;42.692;23.342;2022-08-21T02:49:16;37.10;;;22.75;;
52956;SDS011;38819;42.692;23.342;2022-08-21T02:51:41;35.60;;;23.70;;
52956;SDS011;38819;42.692;23.342;2022-08-21T02:54:07;37.38;;;24.38;;
52956;SDS011;38819;42.692;23.342;2022-08-21T02:56:32;37.55;;;24.95;;
52956;SDS011;38819;42.692;23.342;2022-08-21T02:58:57;39.90;;;25.42;;
52956;SDS011;38819;42.692;23.342;2022-08-21T03:01:23;37.10;;;24.92;;
52956;SDS011;38819;42.692;23.342;2022-08-21T03:03:48;43.33;;;26.67;;
52956;SDS011;38819;42.692;23.342;2022-08-21T03:06:18;41.50;;;24.60;;
52956;SDS011;38819;42.692;23.342;2022-08-21T03:08:45;39.53;;;25.02;;
52956;SDS011;38819;42.692;23.342;2022-08-21T03:11:11;44.17;;;26.23;;
52956;SDS011;38819;42.692;23.342;2022-08-21T03:13:37;41.38;;;25.38;;
52956;SDS011;38819;42.692;23.342;2022-08-21T03:16:04;34.83;;;23.05;;
52956;SDS011;38819;42.692;23.342;2022-08-21T03:18:29;39.88;;;24.70;;
52956;SDS011;38819;42.692;23.342;2022-08-21T03:20:55;31.77;;;20.52;;
52956;SDS011;38819;42.692;23.342;2022-08-21T03:23:20;36.70;;;19.80;;
52956;SDS011;38819;42.692;23.342;2022-08-21T03:25:46;34.78;;;22.23;;
52956;SDS011;38819;42.692;23.342;2022-08-21T03:28:14;31.92;;;22.70;;
52956;SDS011;38819;42.692;23.342;2022-08-21T03:30:43;33.17;;;23.65;;
52956;SDS011;38819;42.692;23.342;2022-08-21T03:33:10;32.60;;;22.08;;
52956;SDS011;38819;42.692;23.342;2022-08-21T03:35:36;35.15;;;22.80;;
52956;SDS011;38819;42.692;23.342;2022-08-21T03:38:01;34.95;;;21.98;;
52956;SDS011;38819;42.692;23.342;2022-08-21T03:40:27;29.48;;;18.77;;
52956;SDS011;38819;42.692;23.342;2022-08-21T03:42:52;22.95;;;17.98;;
52956;SDS011;38819;42.692;23.342;2022-08-21T03:45:18;28.05;;;18.45;;
52956;SDS011;38819;42.692;23.342;2022-08-21T03:47:54;28.02;;;18.80;;
52956;SDS011;38819;42.692;23.342;2022-08-21T03:50:23;27.92;;;17.58;;
52956;SDS011;38819;42.692;23.342;2022-08-21T03:52:49;29.10;;;17.15;;
52956;SDS011;38819;42.692;23.342;2022-08-21T03:55:15;20.48;;;15.02;;
52956;SDS011;38819;42.692;23.342;2022-08-21T03:57:41;29.13;;;16.25;;
52956;SDS011;38819;42.692;23.342;2022-08-21T04:00:07;26.40;;;15.90;;
52956;SDS011;38819;42.692;23.342;2022-08-21T04:02:36;26.05;;;16.23;;
52956;SDS011;38819;42.692;23.342;2022-08-21T04:05:01;19.52;;;14.88;;
52956;SDS011;38819;42.692;23.342;2022-08-21T04:07:27;20.63;;;14.43;;
52956;SDS011;38819;42.692;23.342;2022-08-21T04:09:53;24.38;;;15.18;;
52956;SDS011;38819;42.692;23.342;2022-08-21T04:12:19;22.50;;;13.75;;
52956;SDS011;38819;42.692;23.342;2022-08-21T04:14:45;20.40;;;14.43;;
52956;SDS011;38819;42.692;23.342;2022-08-21T04:17:11;19.92;;;14.48;;
52956;SDS011;38819;42.692;23.342;2022-08-21T04:19:36;20.45;;;12.80;;
52956;SDS011;38819;42.692;23.342;2022-08-21T04:22:02;23.08;;;14.10;;
52956;SDS011;38819;42.692;23.342;2022-08-21T04:24:27;21.63;;;11.60;;
52956;SDS011;38819;42.692;23.342;2022-08-21T04:26:52;18.83;;;10.13;;
52956;SDS011;38819;42.692;23.342;2022-08-21T04:29:18;13.57;;;9.85;;
52956;SDS011;38819;42.692;23.342;2022-08-21T04:31:44;19.13;;;9.83;;
52956;SDS011;38819;42.692;23.342;2022-08-21T04:34:10;12.30;;;8.63;;
52956;SDS011;38819;42.692;23.342;2022-08-21T04:36:35;18.60;;;8.70;;
52956;SDS011;38819;42.692;23.342;2022-08-21T04:39:01;13.48;;;9.80;;
52956;SDS011;38819;42.692;23.342;2022-08-21T04:41:27;12.80;;;9.77;;
52956;SDS011;38819;42.692;23.342;2022-08-21T04:43:53;16.35;;;9.68;;
52956;SDS011;38819;42.692;23.342;2022-08-21T04:46:20;14.38;;;8.80;;
52956;SDS011;38819;42.692;23.342;2022-08-21T04:48:46;22.13;;;9.77;;
52956;SDS011;38819;42.692;23.342;2022-08-21T04:51:16;13.77;;;9.50;;
52956;SDS011;38819;42.692;23.342;2022-08-21T04:53:51;12.85;;;9.02;;
52956;SDS011;38819;42.692;23.342;2022-08-21T04:56:22;23.05;;;9.95;;
52956;SDS011;38819;42.692;23.342;2022-08-21T04:58:48;16.52;;;10.30;;
52956;SDS011;38819;42.692;23.342;2022-08-21T05:01:17;14.70;;;10.13;;
52956;SDS011;38819;42.692;23.342;2022-08-21T05:03:45;21.95;;;10.45;;
52956;SDS011;38819;42.692;23.342;2022-08-21T05:06:14;17.13;;;10.45;;
52956;SDS011;38819;42.692;23.342;2022-08-21T05:08:41;13.07;;;9.20;;
52956;SDS011;38819;42.692;23.342;2022-08-21T05:11:09;14.98;;;10.25;;
52956;SDS011;38819;42.692;23.342;2022-08-21T05:13:35;14.20;;;9.50;;
52956;SDS011;38819;42.692;23.342;2022-08-21T05:16:01;16.00;;;9.18;;
52956;SDS011;38819;42.692;23.342;2022-08-21T05:18:26;18.48;;;9.70;;
52956;SDS011;38819;42.692;23.342;2022-08-21T05:20:52;19.30;;;10.82;;
52956;SDS011;38819;42.692;23.342;2022-08-21T05:23:17;15.05;;;9.95;;
52956;SDS011;38819;42.692;23.342;2022-08-21T05:25:42;13.60;;;10.07;;
52956;SDS011;38819;42.692;23.342;2022-08-21T05:28:08;12.25;;;10.30;;
52956;SDS011;38819;42.692;23.342;2022-08-21T05:30:34;12.38;;;9.82;;
52956;SDS011;38819;42.692;23.342;2022-08-21T05:33:00;12.95;;;10.13;;
52956;SDS011;38819;42.692;23.342;2022-08-21T05:37:53;17.70;;;11.70;;
52956;SDS011;38819;42.692;23.342;2022-08-21T05:40:19;22.50;;;10.95;;
52956;SDS011;38819;42.692;23.342;2022-08-21T05:42:45;17.65;;;10.82;;
52956;SDS011;38819;42.692;23.342;2022-08-21T05:45:10;18.63;;;10.82;;
52956;SDS011;38819;42.692;23.342;2022-08-21T05:47:36;14.27;;;10.60;;
52956;SDS011;38819;42.692;23.342;2022-08-21T05:50:02;13.23;;;10.23;;
52956;SDS011;38819;42.692;23.342;2022-08-21T05:52:28;16.23;;;10.45;;
52956;SDS011;38819;42.692;23.342;2022-08-21T05:54:54;18.10;;;11.32;;
52956;SDS011;38819;42.692;23.342;2022-08-21T05:57:20;15.07;;;10.43;;
52956;SDS011;38819;42.692;23.342;2022-08-21T05:59:46;16.25;;;10.48;;
52956;SDS011;38819;42.692;23.342;2022-08-21T06:02:12;22.92;;;10.63;;
52956;SDS011;38819;42.692;23.342;2022-08-21T06:04:38;17.38;;;11.55;;
52956;SDS011;38819;42.692;23.342;2022-08-21T06:07:04;17.17;;;11.48;;
52956;SDS011;38819;42.692;23.342;2022-08-21T06:09:30;19.67;;;11.27;;
52956;SDS011;38819;42.692;23.342;2022-08-21T06:11:56;15.35;;;10.57;;
52956;SDS011;38819;42.692;23.342;2022-08-21T06:14:21;13.20;;;9.93;;
52956;SDS011;38819;42.692;23.342;2022-08-21T06:16:47;17.00;;;10.85;;
52956;SDS011;38819;42.692;23.342;2022-08-21T06:19:12;13.82;;;9.75;;
52956;SDS011;38819;42.692;23.342;2022-08-21T06:21:38;16.10;;;10.48;;
52956;SDS011;38819;42.692;23.342;2022-08-21T06:24:04;56.05;;;45.50;;
52956;SDS011;38819;42.692;23.342;2022-08-21T06:26:29;46.17;;;34.70;;
52956;SDS011;38819;42.692;23.342;2022-08-21T06:28:56;21.90;;;16.55;;
52956;SDS011;38819;42.692;23.342;2022-08-21T06:31:23;51.53;;;35.92;;
52956;SDS011;38819;42.692;23.342;2022-08-21T06:33:51;52.50;;;41.10;;
52956;SDS011;38819;42.692;23.342;2022-08-21T06:36:17;14.20;;;10.75;;
52956;SDS011;38819;42.692;23.342;2022-08-21T06:38:44;20.23;;;11.18;;
52956;SDS011;38819;42.692;23.342;2022-08-21T06:41:10;24.50;;;18.58;;
52956;SDS011;38819;42.692;23.342;2022-08-21T06:43:35;69.75;;;53.65;;
52956;SDS011;38819;42.692;23.342;2022-08-21T06:46:01;35.97;;;29.83;;
52956;SDS011;38819;42.692;23.342;2022-08-21T06:48:26;16.40;;;10.05;;
52956;SDS011;38819;42.692;23.342;2022-08-21T06:50:52;13.32;;;9.82;;
52956;SDS011;38819;42.692;23.342;2022-08-21T06:53:19;46.03;;;35.55;;
52956;SDS011;38819;42.692;23.342;2022-08-21T06:55:45;59.22;;;38.47;;
52956;SDS011;38819;42.692;23.342;2022-08-21T06:58:12;17.40;;;11.43;;
52956;SDS011;38819;42.692;23.342;2022-08-21T07:00:38;15.85;;;9.20;;
52956;SDS011;38819;42.692;23.342;2022-08-21T07:03:05;14.25;;;8.43;;
52956;SDS011;38819;42.692;23.342;2022-08-21T07:05:31;15.77;;;8.63;;
52956;SDS011;38819;42.692;23.342;2022-08-21T07:07:56;17.42;;;10.38;;
52956;SDS011;38819;42.692;23.342;2022-08-21T07:10:23;16.23;;;9.73;;
52956;SDS011;38819;42.692;23.342;2022-08-21T07:12:50;17.60;;;9.32;;
52956;SDS011;38819;42.692;23.342;2022-08-21T07:15:16;15.68;;;8.77;;
52956;SDS011;38819;42.692;23.342;2022-08-21T07:17:41;14.20;;;8.80;;
52956;SDS011;38819;42.692;23.342;2022-08-21T07:20:07;13.10;;;7.53;;
52956;SDS011;38819;42.692;23.342;2022-08-21T07:22:34;13.13;;;7.65;;
52956;SDS011;38819;42.692;23.342;2022-08-21T07:25:03;10.48;;;6.90;;
52956;SDS011;38819;42.692;23.342;2022-08-21T07:27:29;11.30;;;7.75;;
52956;SDS011;38819;42.692;23.342;2022-08-21T07:29:56;11.95;;;7.18;;
52956;SDS011;38819;42.692;23.342;2022-08-21T07:32:21;12.02;;;7.40;;
52956;SDS011;38819;42.692;23.342;2022-08-21T07:34:47;13.98;;;8.07;;
52956;SDS011;38819;42.692;23.342;2022-08-21T07:37:12;17.70;;;11.20;;
52956;SDS011;38819;42.692;23.342;2022-08-21T07:39:38;17.45;;;10.85;;
52956;SDS011;38819;42.692;23.342;2022-08-21T07:42:03;17.25;;;12.07;;
52956;SDS011;38819;42.692;23.342;2022-08-21T07:44:29;20.15;;;13.88;;
52956;SDS011;38819;42.692;23.342;2022-08-21T07:46:54;22.50;;;13.02;;
52956;SDS011;38819;42.692;23.342;2022-08-21T07:49:20;15.10;;;11.10;;
52956;SDS011;38819;42.692;23.342;2022-08-21T07:51:45;20.92;;;9.82;;
52956;SDS011;38819;42.692;23.342;2022-08-21T07:54:11;18.70;;;10.57;;
52956;SDS011;38819;42.692;23.342;2022-08-21T07:56:36;17.67;;;11.05;;
52956;SDS011;38819;42.692;23.342;2022-08-21T07:59:02;15.40;;;11.60;;
52956;SDS011;38819;42.692;23.342;2022-08-21T08:01:28;14.45;;;10.48;;
52956;SDS011;38819;42.692;23.342;2022-08-21T08:03:54;14.45;;;10.60;;
52956;SDS011;38819;42.692;23.342;2022-08-21T08:06:21;17.80;;;10.63;;
52956;SDS011;38819;42.692;23.342;2022-08-21T08:08:46;15.98;;;9.45;;
52956;SDS011;38819;42.692;23.342;2022-08-21T08:11:12;17.80;;;10.55;;
52956;SDS011;38819;42.692;23.342;2022-08-21T08:13:41;15.90;;;10.60;;
52956;SDS011;38819;42.692;23.342;2022-08-21T08:16:08;17.95;;;11.27;;
52956;SDS011;38819;42.692;23.342;2022-08-21T08:18:33;17.38;;;10.68;;
52956;SDS011;38819;42.692;23.342;2022-08-21T08:20:59;15.75;;;11.18;;
52956;SDS011;38819;42.692;23.342;2022-08-21T08:23:24;22.10;;;12.85;;
52956;SDS011;38819;42.692;23.342;2022-08-21T08:25:50;20.67;;;11.65;;
52956;SDS011;38819;42.692;23.342;2022-08-21T08:28:16;16.55;;;10.35;;
52956;SDS011;38819;42.692;23.342;2022-08-21T08:30:41;15.38;;;10.38;;
52956;SDS011;38819;42.692;23.342;2022-08-21T08:33:07;20.88;;;11.63;;
52956;SDS011;38819;42.692;23.342;2022-08-21T08:35:33;14.25;;;9.63;;
52956;SDS011;38819;42.692;23.342;2022-08-21T08:37:59;18.23;;;9.57;;
52956;SDS011;38819;42.692;23.342;2022-08-21T08:40:33;14.38;;;9.55;;
52956;SDS011;38819;42.692;23.342;2022-08-21T08:43:07;18.90;;;11.10;;
52956;SDS011;38819;42.692;23.342;2022-08-21T08:45:34;15.25;;;10.68;;
52956;SDS011;38819;42.692;23.342;2022-08-21T08:48:04;18.67;;;9.82;;
52956;SDS011;38819;42.692;23.342;2022-08-21T08:50:44;20.15;;;10.48;;
52956;SDS011;38819;42.692;23.342;2022-08-21T08:53:35;19.35;;;9.35;;
52956;SDS011;38819;42.692;23.342;2022-08-21T08:56:08;12.88;;;9.68;;
52956;SDS011;38819;42.692;23.342;2022-08-21T08:58:37;13.95;;;10.07;;
52956;SDS011;38819;42.692;23.342;2022-08-21T09:01:06;19.30;;;10.30;;
52956;SDS011;38819;42.692;23.342;2022-08-21T09:03:40;15.30;;;8.60;;
52956;SDS011;38819;42.692;23.342;2022-08-21T09:06:10;17.67;;;7.95;;
52956;SDS011;38819;42.692;23.342;2022-08-21T09:08:50;9.43;;;6.50;;
52956;SDS011;38819;42.692;23.342;2022-08-21T09:11:41;12.00;;;6.85;;
52956;SDS011;38819;42.692;23.342;2022-08-21T09:16:55;12.10;;;7.93;;
52956;SDS011;38819;42.692;23.342;2022-08-21T09:21:56;16.50;;;7.85;;
52956;SDS011;38819;42.692;23.342;2022-08-21T09:27:42;17.00;;;7.35;;
52956;SDS011;38819;42.692;23.342;2022-08-21T09:30:08;11.55;;;6.32;;
52956;SDS011;38819;42.692;23.342;2022-08-21T09:32:35;14.98;;;6.80;;
52956;SDS011;38819;42.692;23.342;2022-08-21T09:35:13;11.43;;;6.43;;
52956;SDS011;38819;42.692;23.342;2022-08-21T09:37:55;8.52;;;6.95;;
52956;SDS011;38819;42.692;23.342;2022-08-21T09:45:31;12.30;;;5.78;;
52956;SDS011;38819;42.692;23.342;2022-08-21T09:48:14;15.43;;;6.18;;
52956;SDS011;38819;42.692;23.342;2022-08-21T09:50:43;9.52;;;5.65;;
52956;SDS011;38819;42.692;23.342;2022-08-21T09:53:20;16.17;;;7.07;;
52956;SDS011;38819;42.692;23.342;2022-08-21T09:55:49;9.55;;;6.20;;
52956;SDS011;38819;42.692;23.342;2022-08-21T09:58:36;11.07;;;6.68;;
52956;SDS011;38819;42.692;23.342;2022-08-21T10:01:05;10.88;;;6.75;;
52956;SDS011;38819;42.692;23.342;2022-08-21T10:03:31;7.40;;;5.80;;
52956;SDS011;38819;42.692;23.342;2022-08-21T10:06:05;15.25;;;7.70;;
52956;SDS011;38819;42.692;23.342;2022-08-21T10:08:34;13.55;;;6.22;;
52956;SDS011;38819;42.692;23.342;2022-08-21T10:21:41;11.38;;;6.47;;
52956;SDS011;38819;42.692;23.342;2022-08-21T10:24:24;8.57;;;5.82;;
52956;SDS011;38819;42.692;23.342;2022-08-21T10:37:42;9.50;;;5.72;;
52956;SDS011;38819;42.692;23.342;2022-08-21T10:40:15;20.55;;;5.80;;
52956;SDS011;38819;42.692;23.342;2022-08-21T10:50:36;12.65;;;5.70;;
52956;SDS011;38819;42.692;23.342;2022-08-21T10:55:37;14.70;;;8.75;;
52956;SDS011;38819;42.692;23.342;2022-08-21T10:58:14;10.10;;;5.40;;
52956;SDS011;38819;42.692;23.342;2022-08-21T11:00:48;9.07;;;6.15;;
52956;SDS011;38819;42.692;23.342;2022-08-21T11:03:27;9.55;;;4.93;;
52956;SDS011;38819;42.692;23.342;2022-08-21T11:06:20;7.13;;;4.53;;
52956;SDS011;38819;42.692;23.342;2022-08-21T11:08:57;13.00;;;6.20;;
52956;SDS011;38819;42.692;23.342;2022-08-21T11:11:31;13.60;;;8.00;;
52956;SDS011;38819;42.692;23.342;2022-08-21T11:16:45;16.27;;;6.07;;
52956;SDS011;38819;42.692;23.342;2022-08-21T11:27:21;12.57;;;6.50;;
52956;SDS011;38819;42.692;23.342;2022-08-21T11:29:58;7.85;;;5.28;;
52956;SDS011;38819;42.692;23.342;2022-08-21T11:48:54;13.93;;;6.70;;
52956;SDS011;38819;42.692;23.342;2022-08-21T11:51:42;10.93;;;7.28;;
52956;SDS011;38819;42.692;23.342;2022-08-21T11:54:16;9.80;;;6.80;;
52956;SDS011;38819;42.692;23.342;2022-08-21T11:56:55;11.98;;;5.78;;
52956;SDS011;38819;42.692;23.342;2022-08-21T11:59:35;12.07;;;5.57;;
52956;SDS011;38819;42.692;23.342;2022-08-21T12:02:18;9.88;;;5.45;;
52956;SDS011;38819;42.692;23.342;2022-08-21T12:04:52;8.55;;;4.60;;
52956;SDS011;38819;42.692;23.342;2022-08-21T12:10:02;6.70;;;5.15;;
52956;SDS011;38819;42.692;23.342;2022-08-21T12:12:40;11.60;;;6.78;;
52956;SDS011;38819;42.692;23.342;2022-08-21T12:17:59;10.80;;;5.53;;
52956;SDS011;38819;42.692;23.342;2022-08-21T12:25:38;16.42;;;8.25;;
52956;SDS011;38819;42.692;23.342;2022-08-21T12:28:24;8.13;;;6.22;;
52956;SDS011;38819;42.692;23.342;2022-08-21T12:30:50;11.90;;;6.73;;
52956;SDS011;38819;42.692;23.342;2022-08-21T12:33:32;6.95;;;6.20;;
52956;SDS011;38819;42.692;23.342;2022-08-21T12:36:15;6.80;;;5.37;;
52956;SDS011;38819;42.692;23.342;2022-08-21T12:41:20;13.68;;;7.90;;
52956;SDS011;38819;42.692;23.342;2022-08-21T12:44:16;11.23;;;7.78;;
52956;SDS011;38819;42.692;23.342;2022-08-21T12:46:56;10.57;;;6.25;;
52956;SDS011;38819;42.692;23.342;2022-08-21T12:49:45;8.85;;;6.40;;
52956;SDS011;38819;42.692;23.342;2022-08-21T12:52:32;15.00;;;8.10;;
52956;SDS011;38819;42.692;23.342;2022-08-21T12:55:00;12.15;;;7.18;;
52956;SDS011;38819;42.692;23.342;2022-08-21T12:57:26;15.18;;;10.50;;
52956;SDS011;38819;42.692;23.342;2022-08-21T12:59:56;10.27;;;6.68;;
52956;SDS011;38819;42.692;23.342;2022-08-21T13:02:25;8.27;;;5.93;;
52956;SDS011;38819;42.692;23.342;2022-08-21T13:04:54;9.70;;;5.60;;
52956;SDS011;38819;42.692;23.342;2022-08-21T13:07:28;9.05;;;6.43;;
52956;SDS011;38819;42.692;23.342;2022-08-21T13:09:59;6.38;;;4.82;;
52956;SDS011;38819;42.692;23.342;2022-08-21T13:12:28;9.57;;;6.18;;
52956;SDS011;38819;42.692;23.342;2022-08-21T13:14:58;12.98;;;5.10;;
52956;SDS011;38819;42.692;23.342;2022-08-21T13:17:26;6.90;;;4.63;;
52956;SDS011;38819;42.692;23.342;2022-08-21T13:19:56;11.20;;;5.28;;
52956;SDS011;38819;42.692;23.342;2022-08-21T13:22:25;11.43;;;5.78;;
52956;SDS011;38819;42.692;23.342;2022-08-21T13:24:51;9.27;;;5.90;;
52956;SDS011;38819;42.692;23.342;2022-08-21T13:27:22;11.20;;;6.57;;
52956;SDS011;38819;42.692;23.342;2022-08-21T13:30:12;7.85;;;5.40;;
52956;SDS011;38819;42.692;23.342;2022-08-21T13:32:51;7.47;;;5.07;;
52956;SDS011;38819;42.692;23.342;2022-08-21T13:38:17;10.00;;;4.72;;
52956;SDS011;38819;42.692;23.342;2022-08-21T13:40:57;7.25;;;4.70;;
52956;SDS011;38819;42.692;23.342;2022-08-21T13:43:28;10.27;;;5.05;;
52956;SDS011;38819;42.692;23.342;2022-08-21T13:45:57;8.80;;;4.25;;
52956;SDS011;38819;42.692;23.342;2022-08-21T13:48:26;11.30;;;4.80;;
52956;SDS011;38819;42.692;23.342;2022-08-21T13:51:02;10.48;;;5.53;;
52956;SDS011;38819;42.692;23.342;2022-08-21T13:56:06;13.68;;;4.45;;
52956;SDS011;38819;42.692;23.342;2022-08-21T13:58:33;8.90;;;5.18;;
52956;SDS011;38819;42.692;23.342;2022-08-21T14:01:15;11.70;;;4.55;;
52956;SDS011;38819;42.692;23.342;2022-08-21T14:03:54;10.35;;;4.88;;
52956;SDS011;38819;42.692;23.342;2022-08-21T14:06:24;12.43;;;5.22;;
52956;SDS011;38819;42.692;23.342;2022-08-21T14:08:56;7.95;;;5.80;;
52956;SDS011;38819;42.692;23.342;2022-08-21T14:11:27;10.13;;;6.22;;
52956;SDS011;38819;42.692;23.342;2022-08-21T14:14:00;7.93;;;4.97;;
52956;SDS011;38819;42.692;23.342;2022-08-21T14:16:45;8.13;;;4.50;;
52956;SDS011;38819;42.692;23.342;2022-08-21T14:25:00;6.97;;;4.82;;
52956;SDS011;38819;42.692;23.342;2022-08-21T14:27:32;7.63;;;4.85;;
52956;SDS011;38819;42.692;23.342;2022-08-21T14:33:07;10.20;;;5.22;;
52956;SDS011;38819;42.692;23.342;2022-08-21T14:35:36;6.47;;;4.90;;
52956;SDS011;38819;42.692;23.342;2022-08-21T14:38:02;11.30;;;5.20;;
52956;SDS011;38819;42.692;23.342;2022-08-21T14:40:36;13.10;;;6.05;;
52956;SDS011;38819;42.692;23.342;2022-08-21T14:43:01;9.65;;;5.10;;
52956;SDS011;38819;42.692;23.342;2022-08-21T14:45:28;8.68;;;4.40;;
52956;SDS011;38819;42.692;23.342;2022-08-21T14:47:56;9.20;;;5.55;;
52956;SDS011;38819;42.692;23.342;2022-08-21T14:50:23;12.48;;;5.45;;
52956;SDS011;38819;42.692;23.342;2022-08-21T14:52:49;11.68;;;6.18;;
52956;SDS011;38819;42.692;23.342;2022-08-21T14:55:15;9.98;;;6.43;;
52956;SDS011;38819;42.692;23.342;2022-08-21T14:57:42;7.57;;;5.32;;
52956;SDS011;38819;42.692;23.342;2022-08-21T15:00:15;11.93;;;5.82;;
52956;SDS011;38819;42.692;23.342;2022-08-21T15:02:42;10.20;;;5.22;;
52956;SDS011;38819;42.692;23.342;2022-08-21T15:05:08;8.10;;;5.00;;
52956;SDS011;38819;42.692;23.342;2022-08-21T15:07:34;11.85;;;5.55;;
52956;SDS011;38819;42.692;23.342;2022-08-21T15:10:00;9.77;;;5.95;;
52956;SDS011;38819;42.692;23.342;2022-08-21T15:12:26;10.60;;;5.75;;
52956;SDS011;38819;42.692;23.342;2022-08-21T15:14:51;6.43;;;4.28;;
52956;SDS011;38819;42.692;23.342;2022-08-21T15:17:17;8.60;;;5.25;;
52956;SDS011;38819;42.692;23.342;2022-08-21T15:19:43;10.73;;;5.82;;
52956;SDS011;38819;42.692;23.342;2022-08-21T15:22:09;9.25;;;6.03;;
52956;SDS011;38819;42.692;23.342;2022-08-21T15:24:35;6.05;;;4.72;;
52956;SDS011;38819;42.692;23.342;2022-08-21T15:27:01;10.95;;;5.65;;
52956;SDS011;38819;42.692;23.342;2022-08-21T15:29:29;8.50;;;5.50;;
52956;SDS011;38819;42.692;23.342;2022-08-21T15:32:02;7.50;;;5.35;;
52956;SDS011;38819;42.692;23.342;2022-08-21T15:34:48;7.45;;;5.10;;
52956;SDS011;38819;42.692;23.342;2022-08-21T15:37:14;13.73;;;5.35;;
52956;SDS011;38819;42.692;23.342;2022-08-21T15:39:39;5.55;;;5.05;;
52956;SDS011;38819;42.692;23.342;2022-08-21T15:42:05;12.82;;;5.63;;
52956;SDS011;38819;42.692;23.342;2022-08-21T15:44:30;10.05;;;5.80;;
52956;SDS011;38819;42.692;23.342;2022-08-21T15:46:56;12.80;;;5.85;;
52956;SDS011;38819;42.692;23.342;2022-08-21T15:49:23;10.30;;;5.68;;
52956;SDS011;38819;42.692;23.342;2022-08-21T15:51:49;11.57;;;6.07;;
52956;SDS011;38819;42.692;23.342;2022-08-21T15:54:15;10.43;;;6.40;;
52956;SDS011;38819;42.692;23.342;2022-08-21T15:56:40;9.52;;;5.38;;
52956;SDS011;38819;42.692;23.342;2022-08-21T15:59:15;9.13;;;5.95;;
52956;SDS011;38819;42.692;23.342;2022-08-21T16:01:44;12.68;;;5.63;;
52956;SDS011;38819;42.692;23.342;2022-08-21T16:04:22;11.20;;;5.88;;
52956;SDS011;38819;42.692;23.342;2022-08-21T16:06:53;7.13;;;5.53;;